Time;durP1;ratioP1;P1;durP2;ratioP2;P2;SDS_P1;SDS_P2;PMS_P1;PMS_P2;Temp;Humidity;BMP_temperature;BMP_pressure;BME280_temperature;BME280_humidity;BME280_pressure;Samples;Min_cycle;Max_cycle;Signal;HPM_P1;HPM_P2
2022/12/18 00:00:37;;;;;;;;;;;;;;;10.51;69.13;102457.63;1265565;23;769;-68
2022/12/18 00:01:27;;;;;;;;;;;;;;;10.51;69.29;102449.63;1265755;23;618;-68
2022/12/18 00:02:17;;;;;;;;;;;;;;;10.50;69.26;102447.88;1265965;23;665;-68
2022/12/18 00:03:08;;;;;;;;;;;;;;;10.54;69.62;102453.97;1265641;23;649;-68
2022/12/18 00:03:58;;;;;;;;;;;;;;;10.50;69.33;102447.88;1265820;23;645;-67
2022/12/18 00:04:49;;;;;;;;;;;;;;;10.51;69.38;102444.28;1265522;23;619;-67
2022/12/18 00:05:39;;;;;;;;;;;;;;;10.51;68.91;102452.28;1265714;23;665;-68
2022/12/18 00:06:30;;;;;;;;;;;;;;;10.51;68.83;102452.28;1265467;23;623;-68
2022/12/18 00:07:20;;;;;;;;;;;;;;;10.53;69.13;102450.44;1265771;23;603;-68
2022/12/18 00:08:10;;;;;;;;;;;;;;;10.52;69.00;102454.03;1265774;23;696;-68
2022/12/18 00:09:01;;;;;;;;;;;;;;;10.52;69.27;102453.16;1265555;23;650;-67
2022/12/18 00:09:51;;;;;;;;;;;;;;;10.51;69.74;102457.63;1265779;23;658;-68
2022/12/18 00:10:42;;;;;;;;;;;;;;;10.51;68.81;102449.63;1265490;23;611;-67
2022/12/18 00:11:32;;;;;;;;;;;;;;;10.51;69.35;102452.28;1265684;23;816;-68
2022/12/18 00:12:23;;;;;;;;;;;;;;;10.50;69.40;102452.34;1266273;23;684;-68
2022/12/18 00:13:13;;;;;;;;;;;;;;;10.49;69.23;102440.81;1265486;23;651;-67
2022/12/18 00:14:03;;;;;;;;;;;;;;;10.49;69.49;102437.28;1265911;23;669;-68
2022/12/18 00:14:54;;;;;;;;;;;;;;;10.48;69.30;102444.41;1265527;23;634;-67
2022/12/18 00:15:44;;;;;;;;;;;;;;;10.48;69.21;102443.53;1265784;23;646;-67
2022/12/18 00:16:36;;;;;;;;;;;;;;;10.48;69.25;102439.06;1265462;23;666;-67
2022/12/18 00:17:27;;;;;;;;;;;;;;;10.48;69.40;102443.53;1267367;23;661;-68
2022/12/18 00:18:17;;;;;;;;;;;;;;;10.46;69.74;102446.25;1265617;23;638;-68
2022/12/18 00:19:07;;;;;;;;;;;;;;;10.49;69.78;102443.47;1265784;23;642;-67
2022/12/18 00:19:58;;;;;;;;;;;;;;;10.48;69.52;102449.75;1265649;23;623;-68
2022/12/18 00:20:48;;;;;;;;;;;;;;;10.48;69.49;102446.19;1265794;23;673;-67
2022/12/18 00:21:39;;;;;;;;;;;;;;;10.49;69.63;102446.16;1265502;23;650;-68
2022/12/18 00:22:29;;;;;;;;;;;;;;;10.48;69.39;102446.19;1265721;23;646;-68
2022/12/18 00:23:20;;;;;;;;;;;;;;;10.47;69.47;102448.00;1266395;23;638;-68
2022/12/18 00:24:10;;;;;;;;;;;;;;;10.47;69.54;102449.78;1265515;23;682;-67
2022/12/18 00:25:00;;;;;;;;;;;;;;;10.44;69.47;102445.44;1265893;23;677;-67
2022/12/18 00:25:51;;;;;;;;;;;;;;;10.46;69.82;102440.06;1259134;23;674;-68
2022/12/18 00:26:41;;;;;;;;;;;;;;;10.46;69.79;102445.38;1260935;23;684;-68
2022/12/18 00:27:32;;;;;;;;;;;;;;;10.45;69.39;102449.84;1267078;23;665;-68
2022/12/18 00:28:22;;;;;;;;;;;;;;;10.45;69.84;102452.50;1265653;23;661;-68
2022/12/18 00:29:13;;;;;;;;;;;;;;;10.46;69.82;102448.91;1265713;23;678;-68
2022/12/18 00:30:04;;;;;;;;;;;;;;;10.45;69.79;102447.19;1267752;23;661;-68
2022/12/18 00:30:54;;;;;;;;;;;;;;;10.46;69.42;102450.72;1265906;23;661;-68
2022/12/18 00:31:44;;;;;;;;;;;;;;;10.45;69.29;102449.84;1266185;23;544;-68
2022/12/18 00:32:35;;;;;;;;;;;;;;;10.47;69.41;102442.66;1265875;23;622;-68
2022/12/18 00:33:25;;;;;;;;;;;;;;;10.47;69.41;102450.66;1266156;23;632;-68
2022/12/18 00:34:16;;;;;;;;;;;;;;;10.46;69.36;102448.91;1266720;23;720;-68
2022/12/18 00:35:06;;;;;;;;;;;;;;;10.43;69.63;102446.38;1266120;23;653;-68
2022/12/18 00:35:57;;;;;;;;;;;;;;;10.43;69.21;102446.38;1266827;23;665;-67
2022/12/18 00:36:47;;;;;;;;;;;;;;;10.46;69.43;102448.91;1266142;23;723;-68
2022/12/18 00:37:38;;;;;;;;;;;;;;;10.43;69.50;102444.56;1266122;23;1940;-68
2022/12/18 00:38:28;;;;;;;;;;;;;;;10.43;69.84;102451.69;1266055;23;626;-67
2022/12/18 00:39:18;;;;;;;;;;;;;;;10.44;68.96;102450.78;1266204;23;615;-68
2022/12/18 00:40:09;;;;;;;;;;;;;;;10.43;69.14;102449.91;1265842;23;626;-67
2022/12/18 00:40:59;;;;;;;;;;;;;;;10.43;69.47;102446.38;1266130;23;614;-68
2022/12/18 00:42:59;;;;;;;;;;;;;;;10.43;69.37;102443.72;1264166;23;638;-68
2022/12/18 00:43:49;;;;;;;;;;;;;;;10.42;69.94;102444.63;1265924;23;608;-68
2022/12/18 00:44:39;;;;;;;;;;;;;;;10.42;69.75;102441.97;1266374;23;637;-68
2022/12/18 00:45:30;;;;;;;;;;;;;;;10.44;69.32;102438.31;1265853;23;610;-68
2022/12/18 00:46:20;;;;;;;;;;;;;;;10.44;69.15;102448.13;1266131;23;610;-67
2022/12/18 00:47:11;;;;;;;;;;;;;;;10.43;69.16;102441.03;1265864;23;649;-68
2022/12/18 00:48:01;;;;;;;;;;;;;;;10.44;69.45;102450.78;1266040;23;602;-68
2022/12/18 00:48:52;;;;;;;;;;;;;;;10.44;69.00;102456.09;1266096;23;622;-68
2022/12/18 00:49:42;;;;;;;;;;;;;;;10.43;69.47;102451.69;1265978;23;614;-68
2022/12/18 00:50:32;;;;;;;;;;;;;;;10.47;69.35;102457.78;1266039;23;626;-68
2022/12/18 00:51:23;;;;;;;;;;;;;;;10.46;69.08;102456.06;1265914;23;603;-68
2022/12/18 00:52:13;;;;;;;;;;;;;;;10.46;69.02;102451.59;1266092;23;751;-68
2022/12/18 00:53:04;;;;;;;;;;;;;;;10.46;69.49;102451.59;1266713;23;658;-68
2022/12/18 00:53:54;;;;;;;;;;;;;;;10.43;69.30;102457.03;1265893;23;646;-68
2022/12/18 00:54:44;;;;;;;;;;;;;;;10.43;69.74;102451.69;1259658;23;665;-68
2022/12/18 00:55:35;;;;;;;;;;;;;;;10.41;69.81;102448.22;1261369;23;637;-68
2022/12/18 00:56:25;;;;;;;;;;;;;;;10.40;69.29;102452.69;1267450;23;653;-68
2022/12/18 00:57:16;;;;;;;;;;;;;;;10.43;69.76;102446.38;1265925;23;666;-68
2022/12/18 00:58:06;;;;;;;;;;;;;;;10.42;69.38;102440.16;1265383;23;624;-68
2022/12/18 00:58:57;;;;;;;;;;;;;;;10.41;69.46;102442.91;1266012;23;634;-68
2022/12/18 00:59:47;;;;;;;;;;;;;;;10.42;69.75;102440.16;1266050;23;647;-68
2022/12/18 01:00:37;;;;;;;;;;;;;;;10.41;69.52;102437.56;1266086;23;658;-68
2022/12/18 01:01:28;;;;;;;;;;;;;;;10.42;69.66;102445.50;1265875;23;674;-68
2022/12/18 01:02:18;;;;;;;;;;;;;;;10.43;69.44;102443.72;1265939;23;661;-68
2022/12/18 01:03:09;;;;;;;;;;;;;;;10.40;69.39;102446.47;1265688;23;615;-68
2022/12/18 01:03:59;;;;;;;;;;;;;;;10.44;69.11;102442.78;1265940;23;650;-68
2022/12/18 01:04:50;;;;;;;;;;;;;;;10.46;68.84;102440.94;1266066;23;626;-68
2022/12/18 01:05:40;;;;;;;;;;;;;;;10.49;69.43;102442.59;1266084;23;646;-68
2022/12/18 01:06:31;;;;;;;;;;;;;;;10.45;69.51;102439.19;1266110;23;634;-68
2022/12/18 01:07:21;;;;;;;;;;;;;;;10.47;69.08;102440.00;1265872;23;622;-68
2022/12/18 01:08:11;;;;;;;;;;;;;;;10.43;68.98;102435.72;1266117;23;642;-68
2022/12/18 01:09:02;;;;;;;;;;;;;;;10.39;69.39;102439.44;1265855;23;623;-68
2022/12/18 01:09:52;;;;;;;;;;;;;;;10.40;69.74;102441.16;1266110;23;674;-68
2022/12/18 01:10:43;;;;;;;;;;;;;;;10.37;69.59;102443.97;1265839;23;650;-68
2022/12/18 01:11:33;;;;;;;;;;;;;;;10.37;69.71;102442.16;1265911;23;654;-68
2022/12/18 01:12:24;;;;;;;;;;;;;;;10.38;69.57;102443.03;1265224;23;618;-68
2022/12/18 01:13:14;;;;;;;;;;;;;;;10.38;69.42;102440.38;1265894;23;618;-68
2022/12/18 01:14:04;;;;;;;;;;;;;;;10.39;69.03;102445.63;1259703;23;658;-68
2022/12/18 01:14:55;;;;;;;;;;;;;;;10.40;69.10;102443.81;1261318;23;610;-68
2022/12/18 01:15:45;;;;;;;;;;;;;;;10.38;69.57;102443.03;1267428;23;657;-67
2022/12/18 01:16:36;;;;;;;;;;;;;;;10.37;69.42;102443.97;1265829;23;641;-68
2022/12/18 01:17:26;;;;;;;;;;;;;;;10.39;69.73;102436.78;1266000;23;606;-68
2022/12/18 01:18:17;;;;;;;;;;;;;;;10.42;69.23;102436.63;1266715;23;680;-68
2022/12/18 01:19:07;;;;;;;;;;;;;;;10.44;68.88;102437.44;1265957;23;678;-68
2022/12/18 01:19:58;;;;;;;;;;;;;;;10.41;69.30;102432.22;1266056;23;634;-68
2022/12/18 01:20:48;;;;;;;;;;;;;;;10.42;69.28;102439.31;1265780;23;670;-68
2022/12/18 01:21:38;;;;;;;;;;;;;;;10.36;69.73;102432.44;1266076;23;654;-68
2022/12/18 01:22:29;;;;;;;;;;;;;;;10.40;69.72;102435.81;1265932;23;654;-68
2022/12/18 01:23:19;;;;;;;;;;;;;;;10.40;69.22;102435.81;1266072;23;654;-68
2022/12/18 01:24:10;;;;;;;;;;;;;;;10.40;69.21;102438.50;1266600;23;708;-68
2022/12/18 01:25:00;;;;;;;;;;;;;;;10.43;69.25;102443.72;1265848;23;642;-68
2022/12/18 01:25:50;;;;;;;;;;;;;;;10.41;69.60;102443.75;1266095;23;658;-68
2022/12/18 01:26:41;;;;;;;;;;;;;;;10.42;69.63;102437.50;1265316;23;657;-68
2022/12/18 01:27:31;;;;;;;;;;;;;;;10.38;69.05;102441.25;1265968;23;662;-68
2022/12/18 01:28:22;;;;;;;;;;;;;;;10.37;69.74;102446.63;1265780;23;642;-68
2022/12/18 01:29:12;;;;;;;;;;;;;;;10.38;69.51;102449.25;1265813;23;618;-68
2022/12/18 01:30:03;;;;;;;;;;;;;;;10.37;69.53;102446.63;1266185;23;536;-68
2022/12/18 01:30:53;;;;;;;;;;;;;;;10.36;69.67;102440.44;1265868;23;654;-67
2022/12/18 01:31:43;;;;;;;;;;;;;;;10.35;69.47;102443.16;1266014;23;708;-68
2022/12/18 01:32:34;;;;;;;;;;;;;;;10.34;69.39;102447.63;1265780;23;610;-68
2022/12/18 01:33:24;;;;;;;;;;;;;;;10.36;69.46;102445.75;1265909;23;661;-67
2022/12/18 01:34:15;;;;;;;;;;;;;;;10.36;69.29;102442.22;1266120;23;674;-67
2022/12/18 01:35:05;;;;;;;;;;;;;;;10.37;69.32;102436.84;1265891;23;642;-67
2022/12/18 01:35:55;;;;;;;;;;;;;;;10.38;69.30;102443.03;1266040;23;666;-68
2022/12/18 01:36:46;;;;;;;;;;;;;;;10.34;69.24;102447.63;1265840;23;638;-67
2022/12/18 01:37:36;;;;;;;;;;;;;;;10.35;69.41;102448.47;1265863;23;1936;-68
2022/12/18 01:38:27;;;;;;;;;;;;;;;10.34;69.32;102449.41;1265634;23;621;-67
2022/12/18 01:39:17;;;;;;;;;;;;;;;10.34;69.20;102452.06;1265793;23;654;-67
2022/12/18 01:40:08;;;;;;;;;;;;;;;10.34;69.29;102446.75;1265907;23;587;-67
2022/12/18 01:40:58;;;;;;;;;;;;;;;10.34;69.87;102446.75;1265857;23;638;-68
2022/12/18 01:42:01;;;;;;;;;;;;;;;10.33;69.36;102443.22;1265916;23;690;-67
2022/12/18 01:42:51;;;;;;;;;;;;;;;10.34;69.70;102441.41;1265856;23;662;-67
2022/12/18 01:43:42;;;;;;;;;;;;;;;10.37;69.01;102443.97;1266050;23;677;-68
2022/12/18 01:44:32;;;;;;;;;;;;;;;10.35;69.33;102443.16;1265783;23;620;-67
2022/12/18 01:45:23;;;;;;;;;;;;;;;10.33;69.53;102445.00;1265268;23;689;-68
2022/12/18 01:46:13;;;;;;;;;;;;;;;10.33;69.49;102447.66;1267523;23;646;-68
2022/12/18 01:47:04;;;;;;;;;;;;;;;10.34;69.77;102444.06;1266068;23;662;-68
2022/12/18 01:47:54;;;;;;;;;;;;;;;10.34;69.06;102449.41;1265817;23;634;-67
2022/12/18 01:48:45;;;;;;;;;;;;;;;10.34;69.72;102454.72;1266046;23;611;-68
2022/12/18 01:49:35;;;;;;;;;;;;;;;10.30;69.14;102445.97;1265743;23;693;-68
2022/12/18 01:50:25;;;;;;;;;;;;;;;10.33;69.34;102461.00;1259645;23;681;-68
2022/12/18 01:51:16;;;;;;;;;;;;;;;10.34;69.02;102457.41;1261030;23;650;-68
2022/12/18 01:52:06;;;;;;;;;;;;;;;10.37;69.32;102452.81;1267328;23;646;-68
2022/12/18 01:52:57;;;;;;;;;;;;;;;10.38;69.48;102453.69;1266030;23;662;-68
2022/12/18 01:53:47;;;;;;;;;;;;;;;10.36;68.89;102461.75;1265721;23;658;-68
2022/12/18 01:54:37;;;;;;;;;;;;;;;10.35;69.14;102454.69;1259654;23;692;-68
2022/12/18 01:55:28;;;;;;;;;;;;;;;10.35;69.24;102464.47;1261169;23;633;-68
2022/12/18 01:56:18;;;;;;;;;;;;;;;10.35;69.23;102467.13;1267371;23;669;-68
2022/12/18 01:57:09;;;;;;;;;;;;;;;10.36;69.49;102467.09;1266113;23;665;-67
2022/12/18 01:57:59;;;;;;;;;;;;;;;10.36;69.15;102468.88;1265803;23;1956;-68
2022/12/18 01:58:50;;;;;;;;;;;;;;;10.36;69.15;102474.19;1266009;23;654;-68
2022/12/18 01:59:40;;;;;;;;;;;;;;;10.38;69.47;102486.53;1265807;23;614;-68
2022/12/18 02:00:30;;;;;;;;;;;;;;;10.39;69.10;102476.75;1266023;23;758;-68
2022/12/18 02:01:21;;;;;;;;;;;;;;;10.38;69.47;102481.22;1265759;23;1003;-68
2022/12/18 02:02:11;;;;;;;;;;;;;;;10.36;69.44;102487.53;1265740;23;602;-68
2022/12/18 02:03:02;;;;;;;;;;;;;;;10.39;69.19;102488.25;1265978;23;645;-68
2022/12/18 02:03:52;;;;;;;;;;;;;;;10.36;68.87;102483.06;1265651;23;615;-68
2022/12/18 02:04:42;;;;;;;;;;;;;;;10.34;69.29;102484.03;1265945;23;682;-67
2022/12/18 02:05:33;;;;;;;;;;;;;;;10.33;69.46;102485.84;1265646;23;646;-68
2022/12/18 02:06:23;;;;;;;;;;;;;;;10.34;68.91;102486.72;1265921;23;645;-68
2022/12/18 02:07:14;;;;;;;;;;;;;;;10.34;68.67;102484.03;1266110;23;626;-68
2022/12/18 02:08:04;;;;;;;;;;;;;;;10.31;68.81;102481.50;1265719;23;619;-68
2022/12/18 02:08:55;;;;;;;;;;;;;;;10.29;69.34;102483.34;1265910;23;622;-68
2022/12/18 02:09:45;;;;;;;;;;;;;;;10.29;69.34;102480.69;1265725;23;626;-68
2022/12/18 02:10:35;;;;;;;;;;;;;;;10.30;69.47;102485.09;1265323;23;669;-68
2022/12/18 02:11:26;;;;;;;;;;;;;;;10.32;69.14;102491.22;1259352;23;685;-68
2022/12/18 02:12:16;;;;;;;;;;;;;;;10.36;69.02;102498.19;1261151;23;650;-68
2022/12/18 02:13:07;;;;;;;;;;;;;;;10.31;69.27;102505.47;1267340;23;618;-68
2022/12/18 02:13:57;;;;;;;;;;;;;;;10.35;69.39;102501.78;1265721;23;622;-68
2022/12/18 02:14:47;;;;;;;;;;;;;;;10.34;69.33;102508.03;1266043;23;653;-68
2022/12/18 02:15:38;;;;;;;;;;;;;;;10.34;69.08;102502.69;1265766;23;681;-68
2022/12/18 02:16:28;;;;;;;;;;;;;;;10.33;69.19;102508.97;1265840;23;623;-68
2022/12/18 02:17:19;;;;;;;;;;;;;;;10.34;69.39;102506.22;1265984;23;661;-68
2022/12/18 02:18:09;;;;;;;;;;;;;;;10.35;69.13;102509.78;1265800;23;642;-69
2022/12/18 02:19:00;;;;;;;;;;;;;;;10.34;69.36;102505.38;1265997;23;666;-68
2022/12/18 02:19:50;;;;;;;;;;;;;;;10.37;68.81;102510.59;1265685;23;618;-68
2022/12/18 02:20:40;;;;;;;;;;;;;;;10.33;69.10;102512.50;1266042;23;653;-68
2022/12/18 02:21:31;;;;;;;;;;;;;;;10.32;69.18;102507.22;1265677;23;649;-68
2022/12/18 02:22:21;;;;;;;;;;;;;;;10.35;69.19;102515.09;1265809;23;614;-68
2022/12/18 02:23:12;;;;;;;;;;;;;;;10.34;69.05;102516.03;1265566;23;658;-68
2022/12/18 02:24:02;;;;;;;;;;;;;;;10.32;69.03;102516.06;1265842;23;618;-68
2022/12/18 02:24:53;;;;;;;;;;;;;;;10.34;68.65;102508.03;1265430;23;653;-68
2022/12/18 02:25:43;;;;;;;;;;;;;;;10.28;69.21;102508.25;1265728;23;602;-68
2022/12/18 02:26:33;;;;;;;;;;;;;;;10.30;69.59;102514.41;1265774;23;653;-68
2022/12/18 02:27:24;;;;;;;;;;;;;;;10.28;69.43;102509.13;1265622;23;602;-68
2022/12/18 02:28:14;;;;;;;;;;;;;;;10.29;69.14;102510.00;1265785;23;797;-68
2022/12/18 02:29:05;;;;;;;;;;;;;;;10.30;69.31;102511.72;1266088;23;665;-68
2022/12/18 02:29:55;;;;;;;;;;;;;;;10.32;69.10;102504.53;1265753;23;666;-68
2022/12/18 02:30:46;;;;;;;;;;;;;;;10.28;69.14;102503.78;1265941;23;686;-68
2022/12/18 02:31:36;;;;;;;;;;;;;;;10.30;69.46;102501.06;1265636;23;622;-68
2022/12/18 02:32:27;;;;;;;;;;;;;;;10.33;69.09;102500.97;1265987;23;677;-68
2022/12/18 02:33:17;;;;;;;;;;;;;;;10.32;69.35;102496.56;1265660;23;738;-68
2022/12/18 02:34:07;;;;;;;;;;;;;;;10.33;69.03;102490.31;1265832;23;704;-68
2022/12/18 02:34:58;;;;;;;;;;;;;;;10.33;68.72;102492.97;1265585;23;654;-68
2022/12/18 02:35:48;;;;;;;;;;;;;;;10.34;68.74;102494.72;1265700;23;670;-68
2022/12/18 02:36:39;;;;;;;;;;;;;;;10.34;69.16;102492.91;1265996;23;673;-68
2022/12/18 02:37:29;;;;;;;;;;;;;;;10.32;69.16;102480.56;1265854;23;646;-68
2022/12/18 02:38:19;;;;;;;;;;;;;;;10.34;68.97;102487.59;1265855;23;681;-68
2022/12/18 02:39:10;;;;;;;;;;;;;;;10.35;68.79;102496.44;1265925;23;664;-68
2022/12/18 02:40:00;;;;;;;;;;;;;;;10.32;68.70;102480.56;1265828;23;625;-68
2022/12/18 02:40:51;;;;;;;;;;;;;;;10.35;69.00;102480.47;1265979;23;626;-68
2022/12/18 02:41:41;;;;;;;;;;;;;;;10.33;68.80;102476.97;1265900;23;598;-68
2022/12/18 02:42:32;;;;;;;;;;;;;;;10.33;69.01;102476.97;1265957;23;611;-68
2022/12/18 02:43:22;;;;;;;;;;;;;;;10.33;69.06;102471.66;1265703;23;658;-68
2022/12/18 02:44:12;;;;;;;;;;;;;;;10.29;68.81;102468.22;1265788;23;614;-68
2022/12/18 02:45:03;;;;;;;;;;;;;;;10.29;69.03;102470.03;1265574;23;627;-68
2022/12/18 02:45:54;;;;;;;;;;;;;;;10.29;69.42;102460.22;1265909;23;787;-68
2022/12/18 02:46:44;;;;;;;;;;;;;;;10.29;69.35;102459.38;1267518;23;617;-68
2022/12/18 02:47:34;;;;;;;;;;;;;;;10.30;69.28;102471.75;1265847;23;630;-68
2022/12/18 02:48:25;;;;;;;;;;;;;;;10.25;69.28;102455.06;1265583;23;634;-68
2022/12/18 02:49:15;;;;;;;;;;;;;;;10.29;68.95;102459.38;1265672;23;634;-68
2022/12/18 02:50:06;;;;;;;;;;;;;;;10.24;69.01;102462.19;1266000;23;692;-68
2022/12/18 02:50:56;;;;;;;;;;;;;;;10.27;69.12;102462.09;1265722;23;669;-68
2022/12/18 02:51:47;;;;;;;;;;;;;;;10.28;69.33;102468.28;1265655;23;1065;-68
2022/12/18 02:52:37;;;;;;;;;;;;;;;10.26;69.63;102457.69;1265588;23;685;-68
2022/12/18 02:53:27;;;;;;;;;;;;;;;10.28;69.15;102468.28;1265651;23;1254;-68
2022/12/18 02:54:18;;;;;;;;;;;;;;;10.27;69.22;102455.88;1266483;23;680;-68
2022/12/18 02:55:08;;;;;;;;;;;;;;;10.25;69.38;102450.59;1265748;23;626;-68
2022/12/18 02:55:59;;;;;;;;;;;;;;;10.28;68.88;102446.97;1265929;23;646;-68
2022/12/18 02:56:49;;;;;;;;;;;;;;;10.29;69.11;102448.69;1265653;23;614;-68
2022/12/18 02:57:40;;;;;;;;;;;;;;;10.30;69.04;102445.97;1265800;23;1957;-68
2022/12/18 02:58:30;;;;;;;;;;;;;;;10.32;69.03;102449.47;1259197;23;638;-67
2022/12/18 02:59:22;;;;;;;;;;;;;;;10.32;69.04;102449.47;1259425;23;641;-68
2022/12/18 03:00:12;;;;;;;;;;;;;;;10.28;68.71;102445.16;1267427;23;641;-68
2022/12/18 03:01:03;;;;;;;;;;;;;;;10.29;69.34;102444.25;1265945;23;645;-69
2022/12/18 03:01:53;;;;;;;;;;;;;;;10.25;69.70;102442.63;1265683;23;622;-68
2022/12/18 03:02:44;;;;;;;;;;;;;;;10.26;69.56;102441.69;1265835;23;650;-67
2022/12/18 03:03:34;;;;;;;;;;;;;;;10.28;69.53;102446.97;1265697;23;642;-68
2022/12/18 03:04:25;;;;;;;;;;;;;;;10.24;69.31;102446.22;1259534;23;645;-68
2022/12/18 03:05:15;;;;;;;;;;;;;;;10.21;69.06;102445.47;1260974;23;641;-68
2022/12/18 03:06:06;;;;;;;;;;;;;;;10.27;69.65;102442.56;1265649;23;745;-68
2022/12/18 03:06:56;;;;;;;;;;;;;;;10.25;69.20;102447.06;1267387;23;684;-68
2022/12/18 03:07:47;;;;;;;;;;;;;;;10.30;69.39;102450.44;1265514;23;666;-67
2022/12/18 03:08:37;;;;;;;;;;;;;;;10.30;69.03;102448.66;1265204;23;614;-68
2022/12/18 03:09:28;;;;;;;;;;;;;;;10.26;69.25;102451.47;1265835;23;610;-68
2022/12/18 03:10:18;;;;;;;;;;;;;;;10.24;68.94;102450.66;1265738;23;614;-68
2022/12/18 03:11:09;;;;;;;;;;;;;;;10.24;69.07;102445.34;1265715;23;622;-67
2022/12/18 03:13:08;;;;;;;;;;;;;;;10.23;69.44;102441.81;1263892;23;1067;-68
2022/12/18 03:13:59;;;;;;;;;;;;;;;10.19;69.34;102439.34;1265793;23;650;-67
2022/12/18 03:14:49;;;;;;;;;;;;;;;10.21;69.01;102440.16;1265628;23;701;-67
2022/12/18 03:15:39;;;;;;;;;;;;;;;10.25;69.62;102437.28;1265760;23;658;-67
2022/12/18 03:16:30;;;;;;;;;;;;;;;10.23;69.19;102432.94;1265615;23;619;-67
2022/12/18 03:17:20;;;;;;;;;;;;;;;10.22;69.47;102429.41;1265662;23;657;-67
2022/12/18 03:18:11;;;;;;;;;;;;;;;10.21;69.65;102433.00;1265976;23;614;-67
2022/12/18 03:19:01;;;;;;;;;;;;;;;10.23;69.14;102430.28;1265555;23;649;-67
2022/12/18 03:19:51;;;;;;;;;;;;;;;10.22;69.03;102431.19;1265743;23;649;-67
2022/12/18 03:20:42;;;;;;;;;;;;;;;10.20;69.42;102428.63;1266575;23;676;-67
2022/12/18 03:21:32;;;;;;;;;;;;;;;10.24;69.34;102429.34;1265638;23;633;-67
2022/12/18 03:22:23;;;;;;;;;;;;;;;10.23;69.53;102416.97;1265895;23;633;-67
2022/12/18 03:23:13;;;;;;;;;;;;;;;10.24;69.16;102419.56;1265641;23;603;-67
2022/12/18 03:24:04;;;;;;;;;;;;;;;10.28;68.95;102417.66;1265753;23;740;-67
2022/12/18 03:24:54;;;;;;;;;;;;;;;10.25;69.17;102423.09;1265492;23;614;-68
2022/12/18 03:25:44;;;;;;;;;;;;;;;10.25;69.10;102420.44;1265546;23;662;-67
2022/12/18 03:26:35;;;;;;;;;;;;;;;10.23;69.10;102416.97;1265974;23;637;-67
2022/12/18 03:27:25;;;;;;;;;;;;;;;10.27;69.05;102418.59;1265578;23;610;-67
2022/12/18 03:28:16;;;;;;;;;;;;;;;10.25;69.53;102413.31;1265824;23;666;-67
2022/12/18 03:29:06;;;;;;;;;;;;;;;10.24;68.83;102421.34;1265584;23;662;-67
2022/12/18 03:29:58;;;;;;;;;;;;;;;10.21;69.25;102418.84;1265648;23;654;-67
2022/12/18 03:30:49;;;;;;;;;;;;;;;10.26;68.98;102417.72;1267433;23;669;-67
2022/12/18 03:31:39;;;;;;;;;;;;;;;10.21;69.16;102419.69;1265775;23;681;-67
2022/12/18 03:32:30;;;;;;;;;;;;;;;10.19;69.23;102412.69;1265910;23;614;-67
2022/12/18 03:33:20;;;;;;;;;;;;;;;10.19;69.24;102416.22;1265661;23;641;-67
2022/12/18 03:34:11;;;;;;;;;;;;;;;10.26;69.02;102416.84;1265701;23;720;-67
2022/12/18 03:35:01;;;;;;;;;;;;;;;10.33;68.63;102413.03;1265541;23;663;-68
2022/12/18 03:35:51;;;;;;;;;;;;;;;10.31;68.85;102417.53;1265748;23;618;-67
2022/12/18 03:36:42;;;;;;;;;;;;;;;10.28;69.08;102412.31;1265785;23;626;-67
2022/12/18 03:37:32;;;;;;;;;;;;;;;10.29;68.91;102411.41;1265042;23;642;-67
2022/12/18 03:38:23;;;;;;;;;;;;;;;10.27;69.15;102416.78;1259362;23;650;-67
2022/12/18 03:39:13;;;;;;;;;;;;;;;10.26;69.18;102411.50;1260984;23;610;-67
2022/12/18 03:40:04;;;;;;;;;;;;;;;10.25;68.91;102407.13;1259194;23;681;-67
2022/12/18 03:40:54;;;;;;;;;;;;;;;10.25;68.86;102412.44;1261018;23;620;-67
2022/12/18 03:41:45;;;;;;;;;;;;;;;10.27;69.25;102410.59;1267268;23;610;-67
2022/12/18 03:42:35;;;;;;;;;;;;;;;10.22;69.39;102409.88;1267362;23;598;-67
2022/12/18 03:43:26;;;;;;;;;;;;;;;10.25;69.07;102404.44;1265775;23;646;-68
2022/12/18 03:44:16;;;;;;;;;;;;;;;10.22;69.08;102407.22;1265443;23;635;-67
2022/12/18 03:45:06;;;;;;;;;;;;;;;10.21;68.86;102401.03;1265707;23;623;-68
2022/12/18 03:45:57;;;;;;;;;;;;;;;10.27;68.99;102406.13;1265502;23;638;-67
2022/12/18 03:46:47;;;;;;;;;;;;;;;10.28;68.99;102407.00;1265744;23;649;-67
2022/12/18 03:47:38;;;;;;;;;;;;;;;10.26;69.14;102406.19;1265940;23;669;-68
2022/12/18 03:48:28;;;;;;;;;;;;;;;10.26;68.56;102406.19;1265630;23;650;-67
2022/12/18 03:49:19;;;;;;;;;;;;;;;10.23;69.29;102407.16;1265782;23;666;-67
2022/12/18 03:50:09;;;;;;;;;;;;;;;10.22;69.07;102405.44;1265587;23;615;-67
2022/12/18 03:51:00;;;;;;;;;;;;;;;10.27;68.67;102402.59;1265762;23;650;-68
2022/12/18 03:51:50;;;;;;;;;;;;;;;10.20;69.12;102404.66;1264860;23;673;-67
2022/12/18 03:52:42;;;;;;;;;;;;;;;10.19;68.79;102399.38;1265667;23;618;-67
2022/12/18 03:53:32;;;;;;;;;;;;;;;10.21;68.74;102392.19;1265336;23;1170;-68
2022/12/18 03:54:23;;;;;;;;;;;;;;;10.16;69.27;102396.78;1265913;23;607;-68
2022/12/18 03:55:13;;;;;;;;;;;;;;;10.23;69.18;102387.66;1265400;23;618;-67
2022/12/18 03:56:04;;;;;;;;;;;;;;;10.26;68.97;102396.41;1265650;23;724;-68
2022/12/18 03:56:54;;;;;;;;;;;;;;;10.22;68.64;102393.91;1265450;23;654;-67
2022/12/18 03:57:44;;;;;;;;;;;;;;;10.21;68.93;102397.53;1265455;23;1905;-67
2022/12/18 03:58:35;;;;;;;;;;;;;;;10.20;68.90;102395.78;1265916;23;673;-67
2022/12/18 03:59:25;;;;;;;;;;;;;;;10.18;69.40;102392.28;1265481;23;619;-67
2022/12/18 04:00:16;;;;;;;;;;;;;;;10.21;68.90;102393.03;1259347;23;697;-67
2022/12/18 04:01:06;;;;;;;;;;;;;;;10.18;69.18;102395.81;1260888;23;664;-67
2022/12/18 04:01:57;;;;;;;;;;;;;;;10.17;69.16;102395.88;1267202;23;618;-67
2022/12/18 04:02:48;;;;;;;;;;;;;;;10.16;69.08;102389.66;1267332;23;653;-67
2022/12/18 04:03:38;;;;;;;;;;;;;;;10.18;69.19;102395.81;1265409;23;622;-67
2022/12/18 04:04:29;;;;;;;;;;;;;;;10.15;69.12;102392.38;1265699;23;647;-67
2022/12/18 04:05:19;;;;;;;;;;;;;;;10.20;69.28;102390.47;1266334;23;689;-67
2022/12/18 04:06:09;;;;;;;;;;;;;;;10.22;68.81;102393.91;1265599;23;661;-68
2022/12/18 04:07:00;;;;;;;;;;;;;;;10.21;68.86;102395.69;1259451;23;674;-68
2022/12/18 04:07:50;;;;;;;;;;;;;;;10.19;69.15;102388.72;1260914;23;641;-68
2022/12/18 04:08:41;;;;;;;;;;;;;;;10.22;68.91;102388.56;1265506;23;685;-68
2022/12/18 04:09:31;;;;;;;;;;;;;;;10.19;69.09;102384.25;1266393;23;657;-67
2022/12/18 04:10:21;;;;;;;;;;;;;;;10.18;68.91;102377.16;1265725;23;638;-67
2022/12/18 04:11:12;;;;;;;;;;;;;;;10.18;68.92;102370.97;1265956;23;685;-67
2022/12/18 04:12:02;;;;;;;;;;;;;;;10.10;68.93;102374.78;1265543;23;617;-67
2022/12/18 04:12:53;;;;;;;;;;;;;;;10.16;69.09;102364.81;1265646;23;645;-67
2022/12/18 04:13:43;;;;;;;;;;;;;;;10.19;69.14;102365.63;1265439;23;709;-67
2022/12/18 04:14:35;;;;;;;;;;;;;;;10.15;69.13;102360.41;1265613;23;685;-68
2022/12/18 04:15:25;;;;;;;;;;;;;;;10.15;69.07;102358.63;1267294;23;626;-68
2022/12/18 04:16:16;;;;;;;;;;;;;;;10.17;69.29;102361.25;1265834;23;756;-67
2022/12/18 04:17:06;;;;;;;;;;;;;;;10.10;69.16;102364.13;1265574;23;661;-68
2022/12/18 04:17:57;;;;;;;;;;;;;;;10.15;69.08;102360.41;1265694;23;1930;-68
2022/12/18 04:18:47;;;;;;;;;;;;;;;10.14;69.06;102369.34;1265457;23;713;-67
2022/12/18 04:19:38;;;;;;;;;;;;;;;10.14;69.13;102359.56;1265738;23;645;-67
2022/12/18 04:20:28;;;;;;;;;;;;;;;10.09;69.00;102367.72;1259105;23;657;-67
2022/12/18 04:21:19;;;;;;;;;;;;;;;10.15;69.29;102363.09;1260868;23;657;-67
2022/12/18 04:22:09;;;;;;;;;;;;;;;10.14;68.96;102374.66;1264515;23;602;-67
2022/12/18 04:23:00;;;;;;;;;;;;;;;10.10;69.41;102369.44;1265732;23;674;-67
2022/12/18 04:23:50;;;;;;;;;;;;;;;10.10;68.80;102364.13;1266409;23;645;-67
2022/12/18 04:24:40;;;;;;;;;;;;;;;10.09;69.13;102369.50;1265496;23;650;-67
2022/12/18 04:25:31;;;;;;;;;;;;;;;10.08;69.14;102371.31;1265861;23;719;-67
2022/12/18 04:26:21;;;;;;;;;;;;;;;10.14;69.40;102361.34;1265563;23;610;-67
2022/12/18 04:27:12;;;;;;;;;;;;;;;10.14;69.41;102364.88;1265618;23;669;-67
2022/12/18 04:28:02;;;;;;;;;;;;;;;10.15;69.17;102365.75;1267361;23;665;-67
2022/12/18 04:28:53;;;;;;;;;;;;;;;10.13;68.83;102368.47;1265812;23;688;-67